Time;durP1;ratioP1;P1;durP2;ratioP2;P2;SDS_P1;SDS_P2;PMS_P1;PMS_P2;Temp;Humidity;BMP_temperature;BMP_pressure;BME280_temperature;BME280_humidity;BME280_pressure;Samples;Min_cycle;Max_cycle;Signal;HPM_P1;HPM_P2
2022/12/04 00:01:49;;;;;;;75.53;30.65;;;-0.60;99.90;;;;;;5056804;28;20382;-81
2022/12/04 00:04:15;;;;;;;78.60;33.97;;;-0.60;99.90;;;;;;5056295;28;20382;-81
2022/12/04 00:06:40;;;;;;;78.30;32.08;;;-0.60;99.90;;;;;;5055062;28;20143;-80
2022/12/04 00:09:07;;;;;;;70.10;30.08;;;-0.60;99.90;;;;;;5055619;28;20021;-80
2022/12/04 00:11:34;;;;;;;86.43;31.25;;;-0.60;99.90;;;;;;5056484;28;20398;-81
2022/12/04 00:14:00;;;;;;;71.82;30.30;;;-0.60;99.90;;;;;;5055555;28;20099;-80
2022/12/04 00:16:30;;;;;;;75.07;31.27;;;-0.60;99.90;;;;;;5054635;28;20394;-81
2022/12/04 00:18:56;;;;;;;77.88;29.52;;;-0.60;99.90;;;;;;5057502;28;20111;-80
2022/12/04 00:21:24;;;;;;;76.78;31.63;;;-0.60;99.90;;;;;;5056744;28;20029;-81
2022/12/04 00:23:50;;;;;;;85.82;32.80;;;-0.60;99.90;;;;;;5055052;28;20013;-80
2022/12/04 00:26:21;;;;;;;71.57;30.92;;;-0.60;99.90;;;;;;5053555;28;20051;-82
2022/12/04 00:28:48;;;;;;;66.78;28.85;;;-0.60;99.90;;;;;;5055183;28;20013;-81
2022/12/04 00:31:18;;;;;;;77.65;31.58;;;-0.60;99.90;;;;;;5053750;28;20033;-79
2022/12/04 00:33:44;;;;;;;67.30;27.33;;;-0.60;99.90;;;;;;5055518;28;20063;-79
2022/12/04 00:36:12;;;;;;;79.50;31.90;;;-0.60;99.90;;;;;;5073674;28;20020;-80
2022/12/04 00:38:38;;;;;;;82.05;30.98;;;-0.60;99.90;;;;;;5074958;28;20070;-79
2022/12/04 00:41:07;;;;;;;73.95;31.48;;;-0.50;99.90;;;;;;5073746;28;20078;-78
2022/12/04 00:43:32;;;;;;;87.03;33.30;;;-0.50;99.90;;;;;;5073469;28;20428;-80
2022/12/04 00:45:58;;;;;;;77.68;34.00;;;-0.60;99.90;;;;;;5073571;28;20073;-80
2022/12/04 00:48:23;;;;;;;76.28;31.90;;;-0.50;99.90;;;;;;5059813;28;20112;-80
2022/12/04 00:50:49;;;;;;;62.35;27.88;;;-0.50;99.90;;;;;;5054521;28;20112;-80
2022/12/04 00:53:15;;;;;;;71.38;29.73;;;-0.50;99.90;;;;;;5052780;28;20506;-80
2022/12/04 00:55:42;;;;;;;75.85;29.33;;;-0.50;99.90;;;;;;5060396;28;20048;-78
2022/12/04 00:58:08;;;;;;;83.20;30.08;;;-0.50;99.90;;;;;;5065316;28;20498;-78
2022/12/04 01:00:36;;;;;;;80.60;33.33;;;-0.40;99.90;;;;;;5053231;28;20017;-79
2022/12/04 01:03:02;;;;;;;82.15;32.20;;;-0.40;99.90;;;;;;5054579;28;20091;-79
2022/12/04 01:05:28;;;;;;;92.00;33.58;;;-0.40;99.90;;;;;;5053203;28;20021;-80
2022/12/04 01:07:53;;;;;;;75.82;32.35;;;-0.40;99.90;;;;;;5053079;28;20024;-79
2022/12/04 01:10:19;;;;;;;85.57;33.25;;;-0.40;99.90;;;;;;5053123;28;20029;-80
2022/12/04 01:12:49;;;;;;;73.93;31.30;;;-0.40;99.90;;;;;;5054195;28;20025;-79
2022/12/04 01:15:14;;;;;;;68.63;30.33;;;-0.40;99.90;;;;;;5052917;28;20132;-81
2022/12/04 01:17:40;;;;;;;72.38;30.25;;;-0.40;99.90;;;;;;5054245;28;20112;-79
2022/12/04 01:20:06;;;;;;;68.40;30.17;;;-0.40;99.90;;;;;;5052961;28;20033;-80
2022/12/04 01:22:32;;;;;;;84.55;30.73;;;-0.40;99.90;;;;;;5053759;28;20013;-79
2022/12/04 01:24:58;;;;;;;75.82;31.13;;;-0.40;99.90;;;;;;5052890;28;20040;-80
2022/12/04 01:27:23;;;;;;;78.93;30.05;;;-0.30;99.90;;;;;;5052673;28;20033;-80
2022/12/04 01:29:49;;;;;;;73.57;28.77;;;-0.30;99.90;;;;;;5054059;28;20032;-79
2022/12/04 01:32:15;;;;;;;74.55;33.65;;;-0.30;99.90;;;;;;5052596;28;20025;-81
2022/12/04 01:34:41;;;;;;;71.07;28.10;;;-0.30;99.90;;;;;;5052596;28;20017;-80
2022/12/04 01:37:07;;;;;;;67.43;28.35;;;-0.30;99.90;;;;;;5052359;28;20116;-79
2022/12/04 01:39:36;;;;;;;81.50;32.40;;;-0.30;99.90;;;;;;5052446;28;20032;-80
2022/12/04 01:42:02;;;;;;;79.45;30.55;;;-0.30;99.90;;;;;;5052443;28;20025;-79
2022/12/04 01:44:29;;;;;;;74.40;29.73;;;-0.30;99.90;;;;;;5052247;28;20059;-79
2022/12/04 01:46:57;;;;;;;83.15;30.17;;;-0.30;99.90;;;;;;5053745;28;20036;-79
2022/12/04 01:49:40;;;;;;;69.70;27.50;;;-0.30;99.90;;;;;;5053428;28;20035;-81
2022/12/04 01:52:19;;;;;;;58.60;25.38;;;-0.30;99.90;;;;;;5052383;28;20041;-80
2022/12/04 01:54:49;;;;;;;74.80;28.30;;;-0.30;99.90;;;;;;5052310;28;20059;-81
2022/12/04 01:57:21;;;;;;;60.72;24.80;;;-0.30;99.90;;;;;;5055968;28;20028;-80
2022/12/04 01:59:50;;;;;;;67.43;26.95;;;-0.30;99.90;;;;;;5073630;28;20021;-79
2022/12/04 02:02:21;;;;;;;63.88;22.48;;;-0.40;99.90;;;;;;5072180;28;20382;-80
2022/12/04 02:04:47;;;;;;;71.53;25.25;;;-0.40;99.90;;;;;;5073302;28;20031;-80
2022/12/04 02:07:12;;;;;;;60.65;25.02;;;-0.40;99.90;;;;;;5072182;28;20020;-78
2022/12/04 02:09:39;;;;;;;67.20;26.50;;;-0.40;99.90;;;;;;5071972;28;20107;-80
2022/12/04 02:12:35;;;;;;;76.30;28.15;;;-0.40;99.90;;;;;;5073239;28;20040;-79
2022/12/04 02:15:20;;;;;;;70.35;24.00;;;-0.40;99.90;;;;;;5072074;28;20424;-80
2022/12/04 02:18:03;;;;;;;74.60;22.83;;;-0.40;99.90;;;;;;5072050;28;20025;-80
2022/12/04 02:20:57;;;;;;;65.25;22.42;;;-0.40;99.90;;;;;;5072041;28;20032;-79
2022/12/04 02:23:34;;;;;;;68.00;23.60;;;-0.40;99.90;;;;;;5073211;28;20054;-78
2022/12/04 02:26:11;;;;;;;67.18;25.30;;;-0.50;99.90;;;;;;5072048;28;20017;-80
2022/12/04 02:28:56;;;;;;;57.17;21.92;;;-0.50;99.90;;;;;;5071779;28;20028;-79
2022/12/04 02:31:37;;;;;;;63.40;23.38;;;-0.50;99.90;;;;;;5071837;28;20040;-79
2022/12/04 02:34:06;;;;;;;66.10;24.35;;;-0.50;99.90;;;;;;5033090;28;20025;-80
2022/12/04 02:36:40;;;;;;;62.25;23.05;;;-0.50;99.90;;;;;;5033004;28;20033;-78
2022/12/04 02:39:17;;;;;;;51.05;21.45;;;-0.50;99.90;;;;;;5033194;28;20022;-80
2022/12/04 02:41:51;;;;;;;60.20;22.58;;;-0.50;99.90;;;;;;5032004;28;20116;-79
2022/12/04 02:44:24;;;;;;;66.40;23.50;;;-0.50;99.90;;;;;;5031635;28;20511;-80
2022/12/04 02:46:56;;;;;;;55.30;21.95;;;-0.60;99.90;;;;;;5032956;28;20514;-79
2022/12/04 02:49:29;;;;;;;43.33;20.15;;;-0.60;99.90;;;;;;5051545;28;20490;-79
2022/12/04 02:51:57;;;;;;;63.70;22.90;;;-0.60;99.90;;;;;;5052888;28;20037;-80
2022/12/04 02:54:33;;;;;;;61.15;23.30;;;-0.60;99.90;;;;;;5052874;28;20126;-80
2022/12/04 02:57:03;;;;;;;57.03;22.13;;;-0.70;99.90;;;;;;5051646;28;20467;-80
2022/12/04 02:59:34;;;;;;;73.68;22.35;;;-0.70;99.90;;;;;;5051409;28;20021;-80
2022/12/04 03:02:06;;;;;;;61.05;19.92;;;-0.70;99.90;;;;;;5052875;28;20029;-79
2022/12/04 03:04:32;;;;;;;65.72;24.75;;;-0.70;99.90;;;;;;5051459;28;20067;-78
2022/12/04 03:07:12;;;;;;;60.83;23.05;;;-0.60;99.90;;;;;;5053055;28;20025;-78
2022/12/04 03:09:45;;;;;;;63.88;22.27;;;-0.70;99.90;;;;;;5052770;28;20418;-78
2022/12/04 03:12:18;;;;;;;66.20;25.38;;;-0.70;99.90;;;;;;5051497;28;20048;-80
2022/12/04 03:15:09;;;;;;;70.00;22.42;;;-0.70;99.90;;;;;;5052630;28;20031;-80
2022/12/04 03:17:46;;;;;;;65.75;21.88;;;-0.70;99.90;;;;;;5054184;28;20024;-77
2022/12/04 03:20:15;;;;;;;68.03;23.50;;;-0.70;99.90;;;;;;5055213;28;20025;-78
2022/12/04 03:22:44;;;;;;;56.80;20.45;;;-0.70;99.90;;;;;;5055122;28;20052;-79
2022/12/04 03:25:10;;;;;;;62.78;22.48;;;-0.70;99.90;;;;;;5056341;28;20433;-80
2022/12/04 03:27:55;;;;;;;60.03;21.90;;;-0.70;99.90;;;;;;5055051;28;20394;-80
2022/12/04 03:30:22;;;;;;;61.80;22.05;;;-0.70;99.90;;;;;;5055049;28;20025;-79
2022/12/04 03:33:29;;;;;;;61.47;24.88;;;-0.70;99.90;;;;;;5056231;28;20094;-79
2022/12/04 03:36:00;;;;;;;69.93;23.73;;;-0.70;99.90;;;;;;5034252;28;20030;-79
2022/12/04 03:38:37;;;;;;;60.17;23.30;;;-0.70;99.90;;;;;;5053706;28;20123;-80
2022/12/04 03:41:26;;;;;;;71.10;23.73;;;-0.70;99.90;;;;;;5056163;28;20025;-80
2022/12/04 03:44:17;;;;;;;66.75;23.48;;;-0.70;99.90;;;;;;5054735;28;20045;-79
2022/12/04 03:46:51;;;;;;;71.78;24.70;;;-0.60;99.90;;;;;;5054765;28;20078;-80
2022/12/04 03:49:24;;;;;;;55.28;22.55;;;-0.70;99.90;;;;;;5055877;28;20486;-80
2022/12/04 03:51:56;;;;;;;;;;;-0.70;99.90;;;;;;5056434;28;20376;-80
2022/12/04 03:54:27;;;;;;;58.90;18.45;;;-0.70;99.90;;;;;;5054502;28;19948;-80
2022/12/04 03:56:58;;;;;;;46.28;18.33;;;-0.70;99.90;;;;;;5054759;28;20083;-80
2022/12/04 03:59:29;;;;;;;67.32;21.27;;;-0.70;99.90;;;;;;5034467;28;20114;-80
2022/12/04 04:01:58;;;;;;;50.75;18.20;;;-0.80;99.90;;;;;;5035995;28;20018;-79
2022/12/04 04:04:33;;;;;;;63.05;20.90;;;-0.80;99.90;;;;;;5034433;28;20390;-78
2022/12/04 04:07:06;;;;;;;54.42;19.45;;;-0.80;99.90;;;;;;5035842;28;20029;-78
2022/12/04 04:09:37;;;;;;;67.30;20.75;;;-0.80;99.90;;;;;;5034287;28;20467;-80
2022/12/04 04:12:19;;;;;;;72.00;21.58;;;-0.70;99.90;;;;;;5035632;28;20483;-79
2022/12/04 04:26:30;;;;;;;60.05;21.45;;;-0.70;99.90;;;;;;5035596;28;20036;-79
2022/12/04 04:28:55;;;;;;;69.68;22.75;;;-0.70;99.90;;;;;;5035274;28;20026;-81
2022/12/04 04:31:37;;;;;;;52.05;19.05;;;-0.70;99.90;;;;;;5035112;28;20425;-78
2022/12/04 04:34:17;;;;;;;69.45;21.75;;;-0.70;99.90;;;;;;5033926;28;20032;-78
2022/12/04 04:37:04;;;;;;;62.00;20.40;;;-0.70;99.90;;;;;;5033628;28;20033;-78
2022/12/04 04:39:44;;;;;;;51.47;18.65;;;-0.70;99.90;;;;;;5033857;28;20025;-81
2022/12/04 04:42:13;;;;;;;53.83;18.70;;;-0.70;99.90;;;;;;5035362;28;20049;-80
2022/12/04 04:44:44;;;;;;;47.55;16.83;;;-0.80;99.90;;;;;;5039711;28;20568;-79
2022/12/04 04:47:17;;;;;;;53.83;19.50;;;-0.80;99.90;;;;;;5053636;28;20033;-80
2022/12/04 04:49:47;;;;;;;52.70;16.10;;;-0.80;99.90;;;;;;5054780;28;20029;-79
2022/12/04 04:52:14;;;;;;;52.10;15.43;;;-0.80;99.90;;;;;;5054816;28;20036;-79
2022/12/04 04:54:40;;;;;;;48.50;14.93;;;-0.80;99.90;;;;;;5054675;28;20486;-78
2022/12/04 04:57:06;;;;;;;43.03;17.83;;;-0.80;99.90;;;;;;5053463;28;20072;-78
2022/12/04 04:59:33;;;;;;;51.72;17.75;;;-0.90;99.90;;;;;;5053438;28;20518;-78
2022/12/04 05:01:59;;;;;;;50.30;17.63;;;-0.80;99.90;;;;;;5054569;28;20031;-78
2022/12/04 05:04:24;;;;;;;49.35;19.10;;;-0.80;99.90;;;;;;5053231;28;20381;-79
2022/12/04 05:06:50;;;;;;;52.33;18.50;;;-0.90;99.90;;;;;;5054572;28;20509;-79
2022/12/04 05:09:15;;;;;;;57.35;21.42;;;-0.90;99.90;;;;;;5053211;28;20053;-78
2022/12/04 05:11:41;;;;;;;58.40;19.83;;;-0.80;99.90;;;;;;5054241;28;20041;-79
2022/12/04 05:14:08;;;;;;;58.33;20.45;;;-0.90;99.90;;;;;;5067734;28;20114;-78
2022/12/04 05:16:34;;;;;;;69.30;22.05;;;-0.90;99.90;;;;;;5072872;28;20029;-80
2022/12/04 05:21:43;;;;;;;68.82;22.70;;;-0.90;99.90;;;;;;5074493;28;20102;-80
2022/12/04 05:24:09;;;;;;;71.28;23.48;;;-0.80;99.90;;;;;;5072870;28;20024;-79
2022/12/04 05:26:35;;;;;;;60.78;18.05;;;-0.90;99.90;;;;;;5073978;28;20025;-79
2022/12/04 05:29:00;;;;;;;67.95;22.65;;;-0.80;99.90;;;;;;5074180;28;20027;-80
2022/12/04 05:31:26;;;;;;;91.85;24.80;;;-0.90;99.90;;;;;;5072547;28;20077;-79
2022/12/04 05:33:52;;;;;;;72.30;22.73;;;-0.80;99.90;;;;;;5072585;28;20504;-78
2022/12/04 05:36:17;;;;;;;51.85;20.20;;;-0.80;99.90;;;;;;5072681;28;20017;-80
2022/12/04 05:38:43;;;;;;;71.05;22.65;;;-0.90;99.90;;;;;;5072504;28;20023;-79
2022/12/04 05:41:08;;;;;;;62.55;21.42;;;-0.90;99.90;;;;;;5073389;28;20028;-79
2022/12/04 05:43:35;;;;;;;57.58;19.33;;;-0.80;99.90;;;;;;5072205;28;20051;-78
2022/12/04 05:46:05;;;;;;;55.22;21.25;;;-0.90;99.90;;;;;;5072505;28;20017;-78
2022/12/04 05:48:31;;;;;;;70.00;23.88;;;-0.80;99.90;;;;;;5056683;28;20489;-78
2022/12/04 05:50:57;;;;;;;66.60;21.80;;;-0.90;99.90;;;;;;5052412;28;20496;-78
2022/12/04 05:53:22;;;;;;;67.53;19.10;;;-0.90;99.90;;;;;;5052355;28;20072;-79
2022/12/04 05:55:59;;;;;;;52.47;17.55;;;-0.90;99.90;;;;;;5052233;28;20032;-80
2022/12/04 05:58:25;;;;;;;49.97;19.77;;;-0.90;99.90;;;;;;5066642;28;20090;-79
2022/12/04 06:00:51;;;;;;;59.83;20.60;;;-1.00;99.90;;;;;;5072469;28;20036;-78
2022/12/04 06:03:17;;;;;;;53.25;20.50;;;-1.00;99.90;;;;;;5052257;28;20033;-79
2022/12/04 06:05:43;;;;;;;57.67;19.92;;;-1.00;99.90;;;;;;5053332;28;20048;-80
2022/12/04 06:08:08;;;;;;;58.90;18.38;;;-0.90;99.90;;;;;;5052055;28;20363;-80
2022/12/04 06:10:34;;;;;;;61.08;18.65;;;-1.00;99.90;;;;;;5053461;28;20025;-80
2022/12/04 06:13:00;;;;;;;58.03;20.42;;;-1.00;99.90;;;;;;5051934;28;20478;-80
2022/12/04 06:15:25;;;;;;;59.10;21.67;;;-0.90;99.90;;;;;;5052059;28;20035;-79
2022/12/04 06:17:51;;;;;;;50.50;17.90;;;-1.00;99.90;;;;;;5053302;28;20035;-79
2022/12/04 06:20:17;;;;;;;50.83;17.30;;;-1.00;99.90;;;;;;5052053;28;20021;-80
2022/12/04 06:22:42;;;;;;;58.25;17.30;;;-1.00;99.90;;;;;;5051727;28;20028;-78
2022/12/04 06:25:08;;;;;;;46.50;16.00;;;-1.00;99.90;;;;;;5051874;28;20087;-79
2022/12/04 06:27:34;;;;;;;39.13;17.40;;;-1.00;99.90;;;;;;5051787;28;20112;-78
2022/12/04 06:30:00;;;;;;;47.05;15.40;;;-1.00;99.90;;;;;;5051902;28;20057;-78
2022/12/04 06:32:25;;;;;;;50.78;16.75;;;-1.00;99.90;;;;;;5053028;28;20036;-78
2022/12/04 06:34:52;;;;;;;40.90;15.80;;;-1.00;99.90;;;;;;5051864;28;20031;-78
2022/12/04 06:37:19;;;;;;;45.10;16.80;;;-1.00;99.90;;;;;;5053038;28;20035;-78
2022/12/04 06:39:45;;;;;;;60.78;18.15;;;-1.00;99.90;;;;;;5051750;28;20033;-78
2022/12/04 06:42:10;;;;;;;43.63;16.48;;;-1.00;99.90;;;;;;5051595;28;20044;-78
2022/12/04 06:44:36;;;;;;;48.25;16.90;;;-0.90;99.90;;;;;;5052855;28;20060;-80
2022/12/04 06:47:02;;;;;;;38.72;14.60;;;-1.00;99.90;;;;;;5052935;28;20491;-80
2022/12/04 06:49:27;;;;;;;40.10;14.98;;;-0.90;99.90;;;;;;5052965;28;20120;-78
2022/12/04 06:51:53;;;;;;;53.03;19.58;;;-0.90;99.90;;;;;;5051884;28;20029;-79
2022/12/04 06:54:18;;;;;;;47.38;18.27;;;-0.90;99.90;;;;;;5055810;28;20115;-79
2022/12/04 06:56:44;;;;;;;43.58;16.27;;;-0.90;99.90;;;;;;5055686;28;20111;-79
2022/12/04 06:59:10;;;;;;;48.75;17.02;;;-0.90;99.90;;;;;;5055582;28;20067;-78
2022/12/04 07:01:35;;;;;;;75.18;18.63;;;-0.90;99.90;;;;;;5055540;28;20023;-78
2022/12/04 07:04:03;;;;;;;39.83;17.80;;;-0.90;99.90;;;;;;5055474;28;20036;-78
2022/12/04 07:06:37;;;;;;;55.17;18.98;;;-0.90;99.90;;;;;;5055576;28;20021;-78
2022/12/04 07:09:09;;;;;;;45.35;18.98;;;-0.90;99.90;;;;;;5056620;28;20028;-78
2022/12/04 07:11:35;;;;;;;58.63;19.23;;;-0.90;99.90;;;;;;5064875;28;20390;-78
2022/12/04 07:14:01;;;;;;;67.93;19.60;;;-0.80;99.90;;;;;;5076634;28;20028;-79
2022/12/04 07:16:28;;;;;;;44.28;18.90;;;-0.90;99.90;;;;;;5075387;28;20024;-78
2022/12/04 07:18:57;;;;;;;55.75;19.63;;;-0.80;99.90;;;;;;5075262;28;20032;-78
2022/12/04 07:21:25;;;;;;;47.15;18.60;;;-0.80;99.90;;;;;;5075375;28;20027;-79
2022/12/04 07:23:55;;;;;;;51.65;16.85;;;-0.80;99.90;;;;;;5075170;28;20016;-79
2022/12/04 07:26:21;;;;;;;56.42;20.52;;;-0.80;99.90;;;;;;5075151;28;20039;-79
2022/12/04 07:28:47;;;;;;;53.60;18.58;;;-0.80;99.90;;;;;;5074981;28;20024;-79
2022/12/04 07:31:16;;;;;;;59.53;18.27;;;-0.80;99.90;;;;;;5073580;28;20355;-78
2022/12/04 07:33:42;;;;;;;53.97;18.00;;;-0.80;99.90;;;;;;5056182;28;20441;-79
2022/12/04 07:36:11;;;;;;;48.42;18.17;;;-0.80;99.90;;;;;;5055110;28;20390;-79
2022/12/04 07:38:37;;;;;;;51.13;18.63;;;-0.70;99.90;;;;;;5054776;28;20021;-78
2022/12/04 07:41:05;;;;;;;53.45;17.88;;;-0.70;99.90;;;;;;5054990;28;20029;-80
2022/12/04 07:43:31;;;;;;;50.53;18.80;;;-0.70;99.90;;;;;;5054661;28;20021;-80
2022/12/04 07:45:58;;;;;;;45.45;18.50;;;-0.70;99.90;;;;;;5056047;28;20057;-78
2022/12/04 07:48:24;;;;;;;57.03;19.23;;;-0.60;99.90;;;;;;5054576;28;20024;-78
2022/12/04 07:50:49;;;;;;;40.85;18.13;;;-0.60;99.90;;;;;;5070453;28;20017;-80
2022/12/04 07:53:15;;;;;;;53.70;20.85;;;-0.60;99.90;;;;;;5075680;28;20505;-78
2022/12/04 07:55:41;;;;;;;48.80;19.55;;;-0.60;99.90;;;;;;5074597;28;20021;-78
2022/12/04 07:58:06;;;;;;;48.35;18.33;;;-0.60;99.90;;;;;;5063310;28;20021;-78
2022/12/04 08:00:32;;;;;;;48.67;19.30;;;-0.60;99.90;;;;;;5054557;28;20017;-78
2022/12/04 08:02:58;;;;;;;50.38;18.95;;;-0.60;99.90;;;;;;5053908;28;20017;-78
2022/12/04 08:05:23;;;;;;;46.92;19.08;;;-0.50;99.90;;;;;;5055703;28;20044;-80
2022/12/04 08:07:49;;;;;;;47.05;19.27;;;-0.50;99.90;;;;;;5054280;28;20163;-80
2022/12/04 08:10:14;;;;;;;49.40;19.67;;;-0.50;99.90;;;;;;5055751;28;20033;-80
2022/12/04 08:12:40;;;;;;;49.33;18.35;;;-0.50;99.90;;;;;;5055459;28;20029;-80
2022/12/04 08:15:06;;;;;;;47.00;17.20;;;-0.50;99.90;;;;;;5055465;28;20386;-80
2022/12/04 08:17:32;;;;;;;50.28;17.55;;;-0.40;99.90;;;;;;5054108;28;20029;-80
2022/12/04 08:19:58;;;;;;;46.72;19.70;;;-0.40;99.90;;;;;;5054042;28;20098;-80
2022/12/04 08:22:24;;;;;;;53.80;22.40;;;-0.40;99.90;;;;;;5055425;28;20049;-79
2022/12/04 08:24:49;;;;;;;63.13;23.02;;;-0.40;99.90;;;;;;5055303;28;20471;-78
2022/12/04 08:27:15;;;;;;;54.92;19.63;;;-0.40;99.90;;;;;;5053975;28;20028;-79
2022/12/04 08:29:41;;;;;;;56.38;19.50;;;-0.40;99.90;;;;;;5053682;28;20029;-80
2022/12/04 08:32:06;;;;;;;57.45;18.98;;;-0.30;99.90;;;;;;5053890;28;20043;-78
2022/12/04 08:34:32;;;;;;;47.90;18.08;;;-0.30;99.90;;;;;;5053758;28;20029;-80
2022/12/04 08:36:58;;;;;;;53.40;20.15;;;-0.30;99.90;;;;;;5053801;28;20021;-78
2022/12/04 08:39:24;;;;;;;57.50;19.98;;;-0.30;99.90;;;;;;5054978;28;20139;-78
2022/12/04 08:41:49;;;;;;;57.17;20.23;;;-0.30;99.90;;;;;;5055297;28;20025;-79
2022/12/04 08:44:15;;;;;;;50.60;18.75;;;-0.20;99.90;;;;;;5054794;28;20118;-78
2022/12/04 08:46:41;;;;;;;47.10;19.80;;;-0.20;99.90;;;;;;5054905;28;20060;-81
2022/12/04 08:49:06;;;;;;;53.50;21.75;;;-0.20;99.90;;;;;;5053595;28;20024;-78
2022/12/04 08:51:34;;;;;;;51.15;22.35;;;-0.10;99.90;;;;;;5054624;28;20028;-78
2022/12/04 08:54:02;;;;;;;55.92;20.92;;;-0.20;99.90;;;;;;5053468;28;20021;-80
2022/12/04 08:56:29;;;;;;;54.83;19.45;;;-0.10;99.90;;;;;;5054760;28;20025;-78
2022/12/04 08:58:56;;;;;;;47.38;21.35;;;-0.10;99.90;;;;;;5053429;28;20032;-80
2022/12/04 09:01:22;;;;;;;62.80;20.75;;;-0.10;99.90;;;;;;5054704;28;20033;-79
2022/12/04 09:03:48;;;;;;;63.97;22.08;;;0.00;99.90;;;;;;5054585;28;20021;-80
2022/12/04 09:06:14;;;;;;;60.10;23.65;;;0.00;99.90;;;;;;5053341;28;20027;-79
2022/12/04 09:08:41;;;;;;;66.40;23.98;;;0.00;99.90;;;;;;5054383;28;20051;-79
2022/12/04 09:11:13;;;;;;;61.95;23.35;;;0.00;99.90;;;;;;5053256;28;20387;-78
2022/12/04 09:13:40;;;;;;;56.20;22.50;;;0.00;99.90;;;;;;5052974;28;20041;-78
2022/12/04 09:16:09;;;;;;;62.97;23.38;;;0.00;99.90;;;;;;5052173;28;20486;-77
2022/12/04 09:18:36;;;;;;;45.03;19.42;;;0.10;99.90;;;;;;5053070;28;20013;-78
2022/12/04 09:21:05;;;;;;;56.00;21.05;;;0.00;99.90;;;;;;5039570;28;20074;-79
2022/12/04 09:23:32;;;;;;;67.65;24.45;;;0.00;99.90;;;;;;5046691;28;20033;-78
2022/12/04 09:25:58;;;;;;;80.43;26.90;;;0.00;99.90;;;;;;5036563;28;20029;-78
2022/12/04 09:28:23;;;;;;;64.28;25.42;;;0.00;99.90;;;;;;5049285;28;20021;-78
2022/12/04 09:31:00;;;;;;;70.30;23.08;;;0.10;99.90;;;;;;5073039;28;20359;-80
2022/12/04 09:33:26;;;;;;;60.13;22.02;;;0.10;99.90;;;;;;5072694;28;20041;-78
2022/12/04 09:35:52;;;;;;;53.55;19.33;;;0.10;99.90;;;;;;5063749;28;20025;-80
2022/12/04 09:38:18;;;;;;;72.05;22.45;;;0.10;99.90;;;;;;5052466;28;20457;-80
2022/12/04 09:40:51;;;;;;;68.90;25.52;;;0.10;99.90;;;;;;5052515;28;20028;-79
2022/12/04 09:43:22;;;;;;;65.50;21.77;;;0.10;99.90;;;;;;5052526;28;20545;-79
2022/12/04 09:45:57;;;;;;;57.88;22.33;;;0.10;99.90;;;;;;5053698;28;20099;-78
2022/12/04 09:48:31;;;;;;;63.88;23.67;;;0.10;99.90;;;;;;5052471;28;20106;-78
2022/12/04 09:50:58;;;;;;;49.15;20.90;;;0.20;99.90;;;;;;5052841;28;20032;-79
2022/12/04 09:53:34;;;;;;;58.17;22.88;;;0.20;99.90;;;;;;5052334;28;20037;-79
2022/12/04 09:56:10;;;;;;;48.72;20.92;;;0.20;99.90;;;;;;5052792;28;20056;-79
2022/12/04 09:58:45;;;;;;;54.28;24.73;;;0.20;99.90;;;;;;5054692;28;20040;-79
2022/12/04 10:01:22;;;;;;;53.85;21.55;;;0.30;99.90;;;;;;5052197;28;20031;-80
2022/12/04 10:03:48;;;;;;;49.47;20.27;;;0.30;99.90;;;;;;5054297;28;20025;-80
2022/12/04 10:06:25;;;;;;;56.35;20.55;;;0.30;99.90;;;;;;5053830;28;20063;-79
2022/12/04 10:09:23;;;;;;;45.92;18.55;;;0.30;99.90;;;;;;5056869;28;20084;-79
2022/12/04 10:11:49;;;;;;;52.83;18.33;;;0.30;99.90;;;;;;5052608;28;20079;-79
2022/12/04 10:14:39;;;;;;;44.78;18.33;;;0.30;99.90;;;;;;5053826;28;20029;-78
2022/12/04 10:17:27;;;;;;;52.17;21.08;;;0.30;99.90;;;;;;5054583;28;20017;-79
2022/12/04 10:20:11;;;;;;;51.95;20.83;;;0.30;99.90;;;;;;5053535;28;20029;-80
2022/12/04 10:22:53;;;;;;;43.40;19.75;;;0.30;99.90;;;;;;5051669;28;20029;-80
2022/12/04 10:25:23;;;;;;;64.15;20.13;;;0.30;99.90;;;;;;5051909;28;20378;-79
2022/12/04 10:27:56;;;;;;;49.63;18.23;;;0.30;99.90;;;;;;5053292;28;20017;-79
2022/12/04 10:30:25;;;;;;;54.47;20.42;;;0.30;99.90;;;;;;5053778;28;20032;-79
2022/12/04 10:33:04;;;;;;;65.10;25.30;;;0.30;99.90;;;;;;5053180;28;20036;-78
2022/12/04 10:35:32;;;;;;;62.67;24.33;;;0.30;99.90;;;;;;5053645;28;20546;-80
2022/12/04 10:38:03;;;;;;;59.28;26.08;;;0.40;99.90;;;;;;5053911;28;20497;-79
2022/12/04 10:40:39;;;;;;;72.90;28.10;;;0.40;99.90;;;;;;5051519;28;20426;-78
2022/12/04 10:43:14;;;;;;;57.30;23.40;;;0.50;99.90;;;;;;5053108;28;20020;-79
2022/12/04 10:45:39;;;;;;;62.28;25.23;;;0.50;99.90;;;;;;5051997;28;20483;-79
2022/12/04 10:48:07;;;;;;;54.60;23.75;;;0.50;99.90;;;;;;5051697;28;20071;-80
2022/12/04 10:50:33;;;;;;;62.28;23.33;;;0.50;99.90;;;;;;5051915;28;20047;-81
2022/12/04 10:53:00;;;;;;;51.47;22.88;;;0.50;99.90;;;;;;5052119;28;20433;-81
2022/12/04 10:55:29;;;;;;;53.17;22.35;;;0.50;99.90;;;;;;5052659;28;20021;-81
2022/12/04 10:57:55;;;;;;;60.90;24.27;;;0.50;99.90;;;;;;5047859;28;20028;-81
2022/12/04 11:00:24;;;;;;;54.85;26.17;;;0.50;99.90;;;;;;5052271;28;20025;-80
2022/12/04 11:02:51;;;;;;;59.78;26.83;;;0.50;99.90;;;;;;5051505;28;20021;-79
2022/12/04 11:05:31;;;;;;;58.30;25.52;;;0.50;99.90;;;;;;5052717;28;20099;-78
2022/12/04 11:07:59;;;;;;;55.25;22.88;;;0.60;99.90;;;;;;5052792;28;20017;-77
2022/12/04 11:10:30;;;;;;;73.10;29.05;;;0.60;99.90;;;;;;5051532;28;20021;-81
2022/12/04 11:13:11;;;;;;;70.57;30.02;;;0.60;99.90;;;;;;5051548;28;20061;-79
2022/12/04 11:15:49;;;;;;;67.05;28.73;;;0.60;99.90;;;;;;5052756;28;20054;-79
2022/12/04 11:18:18;;;;;;;60.40;26.95;;;0.60;99.90;;;;;;5050758;28;20025;-79
2022/12/04 11:21:06;;;;;;;72.18;26.25;;;0.70;99.90;;;;;;5033490;28;20029;-79
2022/12/04 11:23:45;;;;;;;53.88;24.85;;;0.70;99.90;;;;;;5032815;28;20103;-79
2022/12/04 11:26:11;;;;;;;68.68;30.77;;;0.60;99.90;;;;;;5031224;28;20112;-79
2022/12/04 11:28:39;;;;;;;80.05;34.10;;;0.70;99.90;;;;;;5031463;28;20025;-79
2022/12/04 11:31:07;;;;;;;62.15;24.77;;;0.70;99.90;;;;;;5032583;28;20426;-80
2022/12/04 11:33:48;;;;;;;54.53;25.17;;;0.70;99.90;;;;;;5031152;28;20041;-79
2022/12/04 11:36:17;;;;;;;56.05;24.85;;;0.70;99.90;;;;;;5031351;28;20511;-79
2022/12/04 11:38:43;;;;;;;74.63;29.35;;;0.80;99.90;;;;;;5032879;28;20466;-79
2022/12/04 11:41:23;;;;;;;75.15;31.15;;;0.80;99.90;;;;;;5034899;28;20053;-80
2022/12/04 11:43:49;;;;;;;78.65;32.90;;;0.80;99.90;;;;;;5054207;28;20441;-80
2022/12/04 11:46:20;;;;;;;75.15;31.48;;;0.80;99.90;;;;;;5054626;28;20074;-80
2022/12/04 11:48:46;;;;;;;75.03;29.42;;;0.80;99.90;;;;;;5054673;28;20474;-78
2022/12/04 11:51:14;;;;;;;71.38;30.83;;;0.80;99.90;;;;;;5054586;28;20040;-79
2022/12/04 11:54:17;;;;;;;66.15;28.88;;;0.80;99.90;;;;;;5055705;28;20061;-79
2022/12/04 11:56:54;;;;;;;58.47;27.35;;;0.80;99.90;;;;;;5069610;28;20036;-80
2022/12/04 11:59:36;;;;;;;63.15;27.33;;;0.80;99.90;;;;;;5054031;28;20482;-81
2022/12/04 12:02:33;;;;;;;64.97;24.77;;;0.90;99.90;;;;;;5053651;28;20028;-81
2022/12/04 12:05:14;;;;;;;58.50;26.55;;;0.90;99.90;;;;;;5054233;28;20036;-82
2022/12/04 12:08:03;;;;;;;66.97;28.67;;;0.90;99.90;;;;;;5053458;28;20021;-82
2022/12/04 12:10:50;;;;;;;70.45;28.25;;;0.90;99.90;;;;;;5054961;28;20033;-80
2022/12/04 12:13:49;;;;;;;65.93;26.67;;;0.90;99.90;;;;;;5053511;28;20044;-80
2022/12/04 12:16:25;;;;;;;67.05;25.98;;;0.90;99.90;;;;;;5051535;28;20040;-80
2022/12/04 12:19:09;;;;;;;70.97;25.40;;;0.80;99.90;;;;;;5050000;28;20538;-80
2022/12/04 12:21:56;;;;;;;67.43;25.98;;;0.80;99.90;;;;;;5051874;28;20022;-80
2022/12/04 12:24:33;;;;;;;74.45;31.17;;;0.80;99.90;;;;;;5050169;28;20032;-80
2022/12/04 12:27:14;;;;;;;65.85;28.77;;;0.80;99.90;;;;;;5052723;28;20474;-80
2022/12/04 12:30:16;;;;;;;67.72;28.55;;;0.80;99.90;;;;;;5053792;28;20040;-80
2022/12/04 12:33:03;;;;;;;68.00;26.80;;;0.80;99.90;;;;;;5052164;28;20134;-80
2022/12/04 12:35:32;;;;;;;66.00;26.05;;;0.70;99.90;;;;;;5053398;28;20025;-80
2022/12/04 12:38:24;;;;;;;62.85;25.50;;;0.70;99.90;;;;;;5052441;28;20040;-80
2022/12/04 12:41:00;;;;;;;58.80;26.08;;;0.70;99.90;;;;;;5053648;28;20060;-79
2022/12/04 12:43:35;;;;;;;67.53;27.13;;;0.70;99.90;;;;;;5055060;28;20107;-80
2022/12/04 12:46:07;;;;;;;59.50;25.88;;;0.70;99.90;;;;;;5055805;28;20133;-79
2022/12/04 12:48:48;;;;;;;62.47;24.38;;;0.70;99.90;;;;;;5054709;28;20474;-79
2022/12/04 12:51:36;;;;;;;69.68;29.30;;;0.70;99.90;;;;;;5055729;28;20025;-80
2022/12/04 12:54:44;;;;;;;68.85;28.70;;;0.70;99.90;;;;;;5074434;28;20500;-80
2022/12/04 12:57:27;;;;;;;60.67;24.55;;;0.70;99.90;;;;;;5063470;28;20536;-80
2022/12/04 13:00:01;;;;;;;53.55;21.95;;;0.60;99.90;;;;;;5054553;28;20032;-80
2022/12/04 13:02:32;;;;;;;58.05;24.80;;;0.60;99.90;;;;;;5053051;28;20028;-80
2022/12/04 13:05:05;;;;;;;67.82;27.85;;;0.60;99.90;;;;;;5054530;28;20064;-80